createdAt,value
2023-03-07T00:01:05.420Z,78.93
2023-03-07T00:03:32.061Z,73.57
2023-03-07T00:06:06.985Z,77.90
2023-03-07T00:08:33.692Z,68.47
2023-03-07T00:11:01.955Z,72.77
2023-03-07T00:13:32.283Z,72.40
2023-03-07T00:16:03.369Z,72.60
2023-03-07T00:18:31.139Z,75.20
2023-03-07T00:21:02.787Z,77.00
2023-03-07T00:23:29.318Z,71.47
2023-03-07T00:26:00.330Z,72.60
2023-03-07T00:28:26.995Z,72.40
2023-03-07T00:30:53.555Z,70.67
2023-03-07T00:33:20.082Z,76.63
2023-03-07T00:36:00.858Z,73.70
2023-03-07T00:38:29.846Z,71.93
2023-03-07T00:41:00.720Z,68.50
2023-03-07T00:43:27.906Z,70.90
2023-03-07T00:45:55.093Z,70.63
2023-03-07T00:48:23.354Z,69.63
2023-03-07T00:50:50.115Z,67.90
2023-03-07T00:53:16.983Z,60.70
2023-03-07T00:55:53.684Z,58.83
2023-03-07T00:58:20.131Z,55.03
2023-03-07T01:00:46.606Z,52.87
2023-03-07T01:03:13.132Z,49.97
2023-03-07T01:05:40.284Z,51.90
2023-03-07T01:08:06.788Z,43.17
2023-03-07T01:10:33.485Z,43.73
2023-03-07T01:13:00.449Z,41.33
2023-03-07T01:15:27.602Z,42.53
2023-03-07T01:17:54.386Z,41.47
2023-03-07T01:20:20.910Z,41.47
2023-03-07T01:22:47.427Z,43.17
2023-03-07T01:25:15.167Z,46.10
2023-03-07T01:27:41.726Z,42.30
2023-03-07T01:30:09.381Z,43.40
2023-03-07T01:32:35.993Z,47.10
2023-03-07T01:35:02.480Z,42.57
2023-03-07T01:37:28.943Z,46.70
2023-03-07T01:39:55.567Z,41.17
2023-03-07T01:42:22.122Z,38.27
2023-03-07T01:45:35.936Z,43.27
2023-03-07T01:48:02.417Z,44.33
2023-03-07T01:50:28.942Z,43.13
2023-03-07T01:52:58.055Z,44.63
2023-03-07T01:55:27.451Z,51.10
2023-03-07T01:57:55.069Z,47.33
2023-03-07T02:00:28.685Z,48.60
2023-03-07T02:03:10.300Z,48.37
2023-03-07T02:05:43.479Z,45.57
2023-03-07T02:08:12.077Z,49.23
2023-03-07T02:10:39.159Z,63.10
2023-03-07T02:13:05.834Z,53.23
2023-03-07T02:15:34.197Z,54.97
2023-03-07T02:18:00.906Z,55.57
2023-03-07T02:20:39.132Z,53.33
2023-03-07T02:23:08.507Z,60.23
2023-03-07T02:25:49.631Z,65.10
2023-03-07T02:28:17.369Z,59.10
2023-03-07T02:30:57.998Z,59.47
2023-03-07T02:33:25.168Z,67.80
2023-03-07T02:35:57.131Z,76.07
2023-03-07T02:38:24.212Z,64.77
2023-03-07T02:40:52.483Z,69.50
2023-03-07T02:43:19.978Z,69.50
2023-03-07T02:45:46.534Z,80.63
2023-03-07T02:48:13.938Z,73.07
2023-03-07T02:50:40.402Z,78.10
2023-03-07T02:53:06.899Z,77.73
2023-03-07T02:55:33.728Z,90.17
2023-03-07T02:58:00.213Z,89.20
2023-03-07T03:00:26.984Z,93.27
2023-03-07T03:02:53.571Z,98.13
2023-03-07T03:05:20.317Z,102.70
2023-03-07T03:07:46.780Z,113.93
2023-03-07T03:10:13.289Z,125.93
2023-03-07T03:12:39.813Z,207.03
2023-03-07T03:15:07.027Z,241.33
2023-03-07T03:17:33.561Z,440.90
2023-03-07T03:20:00.124Z,414.77
2023-03-07T03:22:26.628Z,177.77
2023-03-07T03:24:53.140Z,456.07
2023-03-07T03:27:19.639Z,298.03
2023-03-07T03:29:46.187Z,110.13
2023-03-07T03:32:12.746Z,358.73
2023-03-07T03:34:39.330Z,221.17
2023-03-07T03:37:07.720Z,201.53
2023-03-07T03:39:34.232Z,213.97
2023-03-07T03:42:00.862Z,422.50
2023-03-07T03:44:27.374Z,270.30
2023-03-07T03:46:53.962Z,203.00
2023-03-07T03:49:20.539Z,237.83
2023-03-07T03:51:46.990Z,487.50
2023-03-07T03:54:13.500Z,279.07
2023-03-07T03:56:40.000Z,257.23
2023-03-07T03:59:06.482Z,240.70
2023-03-07T04:01:32.963Z,202.47
2023-03-07T04:03:59.599Z,188.63
2023-03-07T04:06:31.388Z,237.07
2023-03-07T04:08:58.173Z,134.23
2023-03-07T04:11:25.239Z,431.93
2023-03-07T04:13:52.201Z,474.57
2023-03-07T04:16:19.099Z,120.43
2023-03-07T04:18:45.657Z,227.27
2023-03-07T04:21:12.975Z,200.23
2023-03-07T04:23:39.860Z,318.73
2023-03-07T04:26:08.058Z,378.80
2023-03-07T04:28:45.693Z,270.83
2023-03-07T04:31:16.297Z,456.93
2023-03-07T04:33:43.194Z,271.57
2023-03-07T04:36:10.381Z,308.87
2023-03-07T04:38:39.018Z,168.17
2023-03-07T04:41:06.432Z,152.23
2023-03-07T04:43:32.936Z,152.40
2023-03-07T04:45:59.557Z,233.47
2023-03-07T04:48:26.093Z,188.97
2023-03-07T04:50:52.803Z,132.77
2023-03-07T04:53:19.855Z,157.40
2023-03-07T04:55:46.350Z,172.97
2023-03-07T04:58:13.603Z,167.70
2023-03-07T05:00:44.362Z,219.20
2023-03-07T05:03:11.920Z,144.90
2023-03-07T05:05:38.807Z,205.93
2023-03-07T05:08:05.826Z,132.07
2023-03-07T05:10:33.964Z,176.50
2023-03-07T05:13:00.613Z,137.10
2023-03-07T05:15:27.781Z,140.07
2023-03-07T05:17:54.206Z,161.13
2023-03-07T05:20:20.971Z,166.47
2023-03-07T05:22:47.708Z,217.27
2023-03-07T05:25:14.709Z,175.40
2023-03-07T05:27:41.224Z,194.23
2023-03-07T05:30:08.378Z,295.77
2023-03-07T05:32:35.118Z,364.77
2023-03-07T05:35:01.735Z,249.37
2023-03-07T05:37:28.238Z,230.00
2023-03-07T05:39:54.915Z,173.10
2023-03-07T05:42:21.470Z,144.77
2023-03-07T05:44:48.211Z,195.97
2023-03-07T05:47:15.086Z,186.20
2023-03-07T05:49:41.954Z,282.07
2023-03-07T05:52:08.446Z,254.10
2023-03-07T05:54:34.925Z,149.83
2023-03-07T05:57:01.387Z,150.43
2023-03-07T05:59:27.887Z,158.00
2023-03-07T06:01:54.431Z,163.23
2023-03-07T06:04:21.064Z,142.33
2023-03-07T06:06:47.599Z,159.97
2023-03-07T06:09:14.173Z,160.33
2023-03-07T06:11:41.050Z,151.40
2023-03-07T06:14:07.569Z,147.33
2023-03-07T06:16:34.195Z,148.40
2023-03-07T06:19:00.843Z,152.17
2023-03-07T06:21:27.380Z,155.03
2023-03-07T06:23:53.847Z,155.73
2023-03-07T06:26:20.440Z,144.53
2023-03-07T06:28:46.930Z,143.10
2023-03-07T06:31:16.402Z,157.73
2023-03-07T06:33:43.889Z,130.40
2023-03-07T06:36:12.915Z,112.13
2023-03-07T06:38:40.126Z,125.63
2023-03-07T06:41:06.971Z,112.70
2023-03-07T06:43:33.495Z,140.10
2023-03-07T06:46:00.441Z,132.73
2023-03-07T06:48:27.082Z,127.63
2023-03-07T06:50:53.612Z,120.30
2023-03-07T06:53:20.392Z,119.27
2023-03-07T06:55:50.721Z,118.20
2023-03-07T06:58:17.961Z,121.83
2023-03-07T07:00:44.868Z,119.00
2023-03-07T07:03:16.140Z,127.50
2023-03-07T07:05:42.825Z,120.70
2023-03-07T07:08:09.463Z,128.30
2023-03-07T07:10:36.799Z,93.53
2023-03-07T07:13:04.504Z,94.20
2023-03-07T07:15:32.424Z,93.50
2023-03-07T07:17:58.911Z,98.10
2023-03-07T07:20:25.428Z,90.63
2023-03-07T07:22:51.991Z,93.87
2023-03-07T07:25:18.450Z,84.53
2023-03-07T07:27:44.973Z,77.57
2023-03-07T07:30:12.528Z,85.47
2023-03-07T07:32:39.237Z,80.50
2023-03-07T07:35:06.321Z,73.50
2023-03-07T07:37:32.813Z,74.47
2023-03-07T07:39:59.290Z,82.20
2023-03-07T07:42:25.761Z,74.93
2023-03-07T07:44:52.237Z,68.27
2023-03-07T07:47:18.796Z,73.53
2023-03-07T07:49:45.421Z,60.83
2023-03-07T07:52:11.986Z,57.37
2023-03-07T07:54:38.643Z,57.67
2023-03-07T07:57:05.272Z,51.13
2023-03-07T07:59:34.208Z,53.93
2023-03-07T08:02:01.749Z,51.00
2023-03-07T08:04:28.663Z,46.17
2023-03-07T08:06:55.535Z,47.63
2023-03-07T08:09:22.155Z,51.37
2023-03-07T08:11:48.827Z,48.77
2023-03-07T08:14:16.688Z,46.17
2023-03-07T08:16:43.295Z,40.63
2023-03-07T13:30:05.952Z,35.77
2023-03-07T13:32:50.874Z,32.87
2023-03-07T13:35:32.335Z,32.03
2023-03-07T13:38:11.154Z,34.80
2023-03-07T13:40:43.599Z,36.43
2023-03-07T13:43:19.399Z,35.20
2023-03-07T13:45:47.815Z,31.97
2023-03-07T13:48:20.531Z,31.57
2023-03-07T13:50:53.531Z,32.97
2023-03-07T13:54:00.478Z,29.40
2023-03-07T13:56:29.533Z,33.77
2023-03-07T13:59:13.998Z,30.20
2023-03-07T14:01:45.266Z,39.10
2023-03-07T14:04:36.706Z,32.63
2023-03-07T14:07:16.212Z,35.80
2023-03-07T14:09:45.204Z,32.03
2023-03-07T14:12:38.644Z,37.37
2023-03-07T14:15:36.623Z,30.53
2023-03-07T14:18:27.460Z,31.67
2023-03-07T14:20:56.470Z,34.87
2023-03-07T14:23:34.946Z,30.77
2023-03-07T14:26:27.242Z,29.60
2023-03-07T14:29:24.673Z,33.27
2023-03-07T14:31:53.200Z,28.87
2023-03-07T14:34:34.326Z,33.10
2023-03-07T14:37:04.911Z,25.50
2023-03-07T14:39:46.676Z,30.27
2023-03-07T14:42:36.235Z,28.70
2023-03-07T14:45:08.813Z,32.07
2023-03-07T14:48:23.940Z,26.87
2023-03-07T14:50:50.834Z,26.33
2023-03-07T14:53:28.588Z,27.23
2023-03-07T14:55:55.881Z,39.43
2023-03-07T14:58:32.858Z,25.37
2023-03-07T15:01:03.495Z,24.17
2023-03-07T15:03:30.578Z,31.13
2023-03-07T15:05:59.501Z,26.23
2023-03-07T15:08:31.975Z,26.90
2023-03-07T15:11:34.040Z,25.90
2023-03-07T15:14:39.277Z,29.53
2023-03-07T15:17:12.018Z,27.33
2023-03-07T15:19:42.797Z,26.07
2023-03-07T15:22:29.325Z,29.13
2023-03-07T15:24:55.999Z,24.53
2023-03-07T15:27:25.947Z,23.63
2023-03-07T15:29:52.787Z,23.37
2023-03-07T15:32:37.180Z,23.50
2023-03-07T15:35:17.212Z,22.97
2023-03-07T15:38:02.693Z,32.57
2023-03-07T15:40:36.604Z,20.23
2023-03-07T15:43:04.465Z,25.83
2023-03-07T15:45:39.204Z,27.60
2023-03-07T15:48:32.301Z,19.77
2023-03-07T15:51:01.338Z,22.00
2023-03-07T15:53:33.178Z,27.23
2023-03-07T15:56:01.784Z,30.27
2023-03-07T15:58:28.776Z,25.87
2023-03-07T16:01:21.332Z,32.47
2023-03-07T16:03:58.882Z,28.97
2023-03-07T16:06:45.946Z,22.67
2023-03-07T16:09:17.362Z,25.87
2023-03-07T16:11:45.516Z,25.47
2023-03-07T16:14:27.891Z,21.43
2023-03-07T16:16:57.263Z,21.47
2023-03-07T16:19:23.821Z,22.03
2023-03-07T16:21:50.390Z,23.50
2023-03-07T16:24:16.891Z,27.63
2023-03-07T16:26:44.501Z,29.90
2023-03-07T16:29:19.134Z,30.93
2023-03-07T16:31:46.004Z,33.13
2023-03-07T16:34:21.832Z,24.00
2023-03-07T16:36:48.481Z,24.23
2023-03-07T16:39:17.953Z,21.53
2023-03-07T16:41:46.348Z,34.47
2023-03-07T16:44:21.099Z,23.03
2023-03-07T16:46:56.480Z,22.57
2023-03-07T16:49:23.296Z,30.47
2023-03-07T16:52:04.591Z,23.23
2023-03-07T16:54:31.962Z,24.23
2023-03-07T16:56:58.524Z,31.43
2023-03-07T16:59:28.398Z,21.63
2023-03-07T17:01:55.042Z,22.00
2023-03-07T17:04:21.828Z,24.13
2023-03-07T17:06:57.713Z,21.93
2023-03-07T17:09:27.910Z,24.80
2023-03-07T17:11:54.409Z,26.77
2023-03-07T17:14:21.020Z,27.33
2023-03-07T17:16:49.302Z,23.97
2023-03-07T17:19:34.036Z,27.67
2023-03-07T17:22:01.845Z,31.67
2023-03-07T17:24:29.236Z,26.93
2023-03-07T17:26:56.973Z,31.53
2023-03-07T17:29:34.397Z,24.00
2023-03-07T17:32:01.177Z,25.83
2023-03-07T17:34:29.591Z,23.70
2023-03-07T17:36:57.368Z,25.13
2023-03-07T17:39:24.612Z,26.17
2023-03-07T17:41:51.134Z,23.23
2023-03-07T17:44:18.196Z,24.57
2023-03-07T17:46:45.098Z,26.57
2023-03-07T17:49:11.744Z,30.67
2023-03-07T17:51:38.657Z,27.33
2023-03-07T17:54:08.798Z,27.43
2023-03-07T17:56:36.739Z,23.67
2023-03-07T17:59:04.013Z,26.13
2023-03-07T18:01:31.856Z,28.50
2023-03-07T18:04:00.570Z,26.13
2023-03-07T18:06:27.547Z,28.10
2023-03-07T18:08:54.225Z,30.67
2023-03-07T18:11:20.858Z,26.77
2023-03-07T18:13:47.413Z,26.87
2023-03-07T18:16:14.103Z,31.50
2023-03-07T18:18:57.746Z,28.40
2023-03-07T18:21:25.332Z,23.13
2023-03-07T18:23:52.565Z,29.83
2023-03-07T18:26:20.011Z,24.07
2023-03-07T18:28:48.159Z,27.53
2023-03-07T18:31:25.194Z,28.93
2023-03-07T18:33:53.088Z,22.70
2023-03-07T18:36:21.509Z,30.30
2023-03-07T18:38:48.231Z,31.47
2023-03-07T18:41:25.978Z,28.97
2023-03-07T18:43:53.982Z,27.17
2023-03-07T18:46:22.383Z,28.07
2023-03-07T18:48:49.501Z,27.60
2023-03-07T18:51:18.851Z,26.23
2023-03-07T18:53:45.491Z,27.37
2023-03-07T18:56:14.035Z,25.57
2023-03-07T18:58:41.564Z,34.83
2023-03-07T19:01:15.142Z,28.93
2023-03-07T19:03:42.572Z,25.30
2023-03-07T19:06:09.692Z,33.80
2023-03-07T19:08:36.537Z,28.97
2023-03-07T19:11:04.517Z,26.73
2023-03-07T19:13:31.338Z,28.30
2023-03-07T19:16:24.934Z,29.00
2023-03-07T19:18:51.929Z,29.20
2023-03-07T19:21:20.405Z,31.37
2023-03-07T19:23:48.294Z,27.27
2023-03-07T19:26:18.166Z,26.87
2023-03-07T19:28:46.122Z,25.27
2023-03-07T19:31:16.279Z,24.37
2023-03-07T19:33:43.909Z,24.03
2023-03-07T19:36:16.305Z,22.17
2023-03-07T19:38:43.352Z,23.93
2023-03-07T19:41:12.969Z,21.63
2023-03-07T19:43:40.365Z,20.47
2023-03-07T19:46:08.652Z,22.87
2023-03-07T19:48:35.485Z,21.90
2023-03-07T19:51:02.345Z,22.60
2023-03-07T19:53:28.814Z,22.57
2023-03-07T19:55:55.377Z,22.07
2023-03-07T19:58:22.097Z,22.40
2023-03-07T20:00:48.594Z,21.77
2023-03-07T20:03:17.305Z,21.77
2023-03-07T20:05:45.594Z,24.87
2023-03-07T20:08:12.336Z,22.73
2023-03-07T20:10:39.490Z,19.20
2023-03-07T20:13:06.783Z,16.13
2023-03-07T20:15:34.559Z,21.03
2023-03-07T20:18:04.358Z,20.50
2023-03-07T20:20:31.011Z,20.60
2023-03-07T20:22:58.864Z,19.23
2023-03-07T20:25:29.200Z,19.90
2023-03-07T20:27:55.789Z,20.90
2023-03-07T20:30:22.338Z,22.00
2023-03-07T20:32:48.774Z,16.83
2023-03-07T20:35:16.287Z,19.67
2023-03-07T20:37:42.826Z,20.33
2023-03-07T20:40:09.937Z,15.03
2023-03-07T20:42:36.523Z,14.03
2023-03-07T20:45:03.234Z,14.77
2023-03-07T20:47:29.778Z,14.97
2023-03-07T20:49:56.510Z,16.43
2023-03-07T20:52:24.178Z,18.83
2023-03-07T20:54:50.640Z,16.00
2023-03-07T20:57:17.092Z,12.97
2023-03-07T20:59:43.600Z,16.03
2023-03-07T21:02:11.003Z,17.60
2023-03-07T21:04:37.702Z,14.70
2023-03-07T21:07:04.154Z,14.20
2023-03-07T21:09:30.691Z,14.07
2023-03-07T21:11:57.652Z,16.57
2023-03-07T21:14:26.170Z,17.20
2023-03-07T21:16:52.778Z,15.97
2023-03-07T21:19:20.212Z,14.27
2023-03-07T21:21:46.844Z,18.10
2023-03-07T21:24:16.728Z,15.60
2023-03-07T21:26:43.572Z,15.43
2023-03-07T21:29:10.987Z,18.60
2023-03-07T21:31:38.662Z,14.10
2023-03-07T21:34:07.737Z,14.27
2023-03-07T21:36:34.618Z,16.30
2023-03-07T21:39:04.070Z,15.80
2023-03-07T21:41:30.517Z,14.97
2023-03-07T21:43:57.626Z,16.87
2023-03-07T21:46:25.180Z,14.57
2023-03-07T21:48:51.897Z,16.93
2023-03-07T21:51:19.113Z,15.37
2023-03-07T21:53:45.657Z,11.53
2023-03-07T21:56:17.029Z,15.00
2023-03-07T21:58:47.477Z,15.20
2023-03-07T22:01:26.082Z,16.77
2023-03-07T22:03:54.866Z,16.67
2023-03-07T22:06:22.286Z,15.20
2023-03-07T22:08:48.797Z,21.73
2023-03-07T22:11:16.226Z,23.47
2023-03-07T22:13:43.127Z,15.87
2023-03-07T22:16:17.921Z,14.53
2023-03-07T22:18:44.488Z,17.83
2023-03-07T22:21:17.169Z,16.00
2023-03-07T22:23:43.858Z,15.13
2023-03-07T22:26:11.914Z,13.80
2023-03-07T22:28:40.487Z,10.00
2023-03-07T22:31:11.974Z,7.27
2023-03-07T22:33:38.993Z,4.70
2023-03-07T22:36:06.658Z,6.03
2023-03-07T22:38:33.642Z,5.83
2023-03-07T22:41:01.560Z,4.37
2023-03-07T22:43:30.750Z,6.30
2023-03-07T22:45:57.300Z,3.53
2023-03-07T22:48:23.942Z,6.97
2023-03-07T22:50:50.393Z,5.70
2023-03-07T22:53:16.885Z,3.80
2023-03-07T22:55:43.738Z,8.83
2023-03-07T22:58:11.282Z,3.87
2023-03-07T23:00:40.494Z,6.23
2023-03-07T23:03:07.028Z,3.10
2023-03-07T23:05:33.926Z,5.87
2023-03-07T23:08:01.297Z,12.13
2023-03-07T23:10:28.999Z,5.37
2023-03-07T23:12:55.643Z,5.50
2023-03-07T23:15:23.066Z,5.53
2023-03-07T23:17:49.703Z,5.13
2023-03-07T23:20:18.710Z,6.80
2023-03-07T23:22:46.216Z,5.63
2023-03-07T23:25:15.165Z,6.97
2023-03-07T23:27:42.059Z,6.73
2023-03-07T23:30:09.660Z,6.67
2023-03-07T23:32:36.344Z,6.37
2023-03-07T23:35:03.928Z,6.10
2023-03-07T23:37:30.405Z,9.47
2023-03-07T23:39:58.450Z,6.53
2023-03-07T23:42:25.035Z,10.90
2023-03-07T23:44:51.772Z,9.37
2023-03-07T23:47:18.241Z,8.40
2023-03-07T23:49:44.785Z,8.53
2023-03-07T23:52:11.259Z,8.90
2023-03-07T23:54:37.796Z,7.50
2023-03-07T23:57:04.282Z,9.03
2023-03-07T23:59:30.855Z,6.47
